Time;durP1;ratioP1;P1;durP2;ratioP2;P2;SDS_P1;SDS_P2;PMS_P1;PMS_P2;Temp;Humidity;BMP_temperature;BMP_pressure;BME280_temperature;BME280_humidity;BME280_pressure;Samples;Min_cycle;Max_cycle;Signal;HPM_P1;HPM_P2
2021/09/21 00:02:23;;;;;;;0.00;0.00;;;10.90;99.90;;;;;;4845209;29;20093;-93
2021/09/21 00:04:50;;;;;;;0.00;0.00;;;10.90;99.90;;;;;;4845196;29;20448;-94
2021/09/21 00:07:19;;;;;;;0.00;0.00;;;10.90;99.90;;;;;;4845154;29;20049;-94
2021/09/21 00:09:46;;;;;;;0.28;0.20;;;10.90;99.90;;;;;;4830176;29;20170;-93
2021/09/21 00:12:13;;;;;;;0.22;0.20;;;11.00;99.90;;;;;;4830326;29;20547;-93
2021/09/21 00:14:40;;;;;;;0.10;0.10;;;10.90;99.90;;;;;;4844801;29;20138;-93
2021/09/21 00:17:06;;;;;;;0.00;0.00;;;10.90;99.90;;;;;;4845019;29;20496;-93
2021/09/21 00:19:33;;;;;;;0.10;0.10;;;10.90;99.90;;;;;;4844907;29;20437;-93
2021/09/21 00:22:01;;;;;;;0.10;0.10;;;11.00;99.90;;;;;;4830201;29;20046;-94
2021/09/21 00:24:27;;;;;;;0.10;0.10;;;10.90;99.90;;;;;;4830017;29;20053;-93
2021/09/21 00:26:55;;;;;;;0.10;0.10;;;11.00;99.90;;;;;;4845420;29;20396;-93
2021/09/21 00:29:22;;;;;;;0.00;0.00;;;10.90;99.90;;;;;;4844581;29;20050;-94
2021/09/21 00:31:56;;;;;;;0.00;0.00;;;11.00;99.90;;;;;;4844732;29;20483;-93
2021/09/21 00:34:27;;;;;;;0.00;0.00;;;11.00;99.90;;;;;;4844636;29;20050;-94
2021/09/21 00:36:54;;;;;;;0.05;0.05;;;11.00;99.90;;;;;;4844926;29;20499;-94
2021/09/21 00:39:29;;;;;;;0.03;0.03;;;11.10;99.90;;;;;;4844759;29;20046;-94
2021/09/21 00:41:56;;;;;;;0.10;0.10;;;10.90;99.90;;;;;;4830349;29;20049;-94
2021/09/21 00:44:23;;;;;;;0.03;0.03;;;11.10;99.90;;;;;;4844607;29;20038;-94
2021/09/21 00:46:50;;;;;;;0.00;0.00;;;11.10;99.90;;;;;;4830066;29;20042;-93
2021/09/21 00:49:17;;;;;;;0.03;0.03;;;11.00;99.90;;;;;;4844846;29;20133;-94
2021/09/21 00:51:44;;;;;;;0.00;0.00;;;11.10;99.90;;;;;;4844244;29;20407;-93
2021/09/21 00:54:11;;;;;;;0.10;0.10;;;11.10;99.90;;;;;;4844433;29;20042;-93
2021/09/21 00:56:38;;;;;;;0.17;0.13;;;11.10;99.90;;;;;;4844198;29;20093;-93
2021/09/21 00:59:05;;;;;;;0.10;0.10;;;11.10;99.90;;;;;;4844750;29;20054;-93
2021/09/21 01:01:33;;;;;;;0.10;0.10;;;11.00;99.90;;;;;;4829152;29;20066;-94
2021/09/21 01:04:03;;;;;;;0.00;0.00;;;11.10;99.90;;;;;;4844728;29;20141;-94
2021/09/21 01:06:30;;;;;;;0.00;0.00;;;10.80;99.90;;;;;;4844221;29;20042;-93
2021/09/21 01:09:05;;;;;;;0.10;0.10;;;11.00;99.90;;;;;;4844680;29;20437;-94
2021/09/21 01:11:35;;;;;;;0.00;0.00;;;11.00;99.90;;;;;;4843788;29;20049;-94
2021/09/21 01:14:04;;;;;;;0.00;0.00;;;11.10;99.90;;;;;;4844245;29;20522;-94
2021/09/21 01:16:32;;;;;;;0.00;0.00;;;11.00;99.90;;;;;;4844304;29;20054;-93
2021/09/21 01:18:58;;;;;;;0.00;0.00;;;11.00;99.90;;;;;;4844528;29;20057;-93
2021/09/21 01:21:28;;;;;;;0.00;0.00;;;11.00;99.90;;;;;;4829508;29;20035;-93
2021/09/21 01:23:56;;;;;;;0.00;0.00;;;11.00;99.90;;;;;;4844376;29;20123;-93
2021/09/21 01:26:24;;;;;;;0.00;0.00;;;11.00;99.90;;;;;;4843814;29;20038;-93
2021/09/21 01:28:51;;;;;;;0.03;0.03;;;11.10;99.90;;;;;;4843773;29;20043;-93
2021/09/21 01:31:18;;;;;;;0.20;0.20;;;11.00;99.90;;;;;;4845517;29;20137;-93
2021/09/21 01:33:50;;;;;;;0.17;0.10;;;11.00;99.90;;;;;;4831963;29;20195;-93
2021/09/21 01:36:20;;;;;;;0.10;0.10;;;11.00;99.90;;;;;;4847182;29;20102;-93
2021/09/21 01:38:47;;;;;;;0.00;0.00;;;11.00;99.90;;;;;;4846656;29;20045;-93
2021/09/21 01:41:15;;;;;;;0.00;0.00;;;11.00;99.90;;;;;;4831606;29;20489;-93
2021/09/21 01:43:44;;;;;;;0.10;0.10;;;11.00;99.90;;;;;;4846937;29;20479;-94
2021/09/21 01:46:13;;;;;;;0.10;0.10;;;11.00;99.90;;;;;;4846957;29;20094;-94
2021/09/21 01:48:40;;;;;;;0.08;0.08;;;11.00;99.90;;;;;;4846799;29;20422;-94
2021/09/21 01:51:12;;;;;;;0.00;0.00;;;11.00;99.90;;;;;;4846849;29;20051;-94
2021/09/21 01:59:08;;;;;;;0.20;0.20;;;10.90;99.90;;;;;;4842924;29;20058;-94
2021/09/21 02:01:36;;;;;;;0.00;0.00;;;11.00;99.90;;;;;;4832170;29;20555;-93
2021/09/21 02:04:07;;;;;;;0.00;0.00;;;10.90;99.90;;;;;;4846371;29;20487;-94
2021/09/21 02:09:07;;;;;;;0.03;0.03;;;10.90;99.90;;;;;;4861934;29;20046;-93
2021/09/21 02:11:34;;;;;;;0.10;0.10;;;10.90;99.90;;;;;;4846134;29;20395;-93
2021/09/21 02:14:02;;;;;;;0.00;0.00;;;10.90;99.90;;;;;;4846414;29;20520;-93
2021/09/21 02:16:34;;;;;;;0.30;0.20;;;10.80;99.90;;;;;;4831430;29;20551;-93
2021/09/21 02:19:01;;;;;;;0.00;0.00;;;10.90;99.90;;;;;;4831950;29;20475;-93
2021/09/21 02:21:28;;;;;;;0.10;0.10;;;10.90;99.90;;;;;;4840920;29;20053;-93
2021/09/21 02:23:57;;;;;;;0.00;0.00;;;10.90;99.90;;;;;;4836811;29;20179;-93
2021/09/21 02:26:25;;;;;;;0.47;0.10;;;10.90;99.90;;;;;;4837397;29;20041;-93
2021/09/21 02:28:52;;;;;;;0.10;0.10;;;10.80;99.90;;;;;;4836166;29;20045;-93
2021/09/21 02:31:19;;;;;;;0.03;0.03;;;10.80;99.90;;;;;;4835097;29;20467;-93
2021/09/21 02:33:47;;;;;;;0.00;0.00;;;10.90;99.90;;;;;;4836767;29;20050;-93
2021/09/21 02:36:14;;;;;;;0.00;0.00;;;10.90;99.90;;;;;;4836578;29;20555;-94
2021/09/21 02:38:41;;;;;;;0.17;0.17;;;10.90;99.90;;;;;;4837670;29;20053;-94
2021/09/21 02:41:08;;;;;;;0.00;0.00;;;10.90;99.90;;;;;;4845668;29;20056;-93
2021/09/21 02:43:35;;;;;;;0.00;0.00;;;10.60;99.90;;;;;;4830563;29;20487;-93
2021/09/21 02:46:05;;;;;;;0.08;0.05;;;10.90;99.90;;;;;;4845973;29;20041;-93
2021/09/21 02:48:35;;;;;;;0.00;0.00;;;10.90;99.90;;;;;;4845602;29;20461;-94
2021/09/21 02:51:02;;;;;;;0.10;0.10;;;10.90;99.90;;;;;;4845545;29;20050;-93
2021/09/21 02:53:30;;;;;;;0.00;0.00;;;10.80;99.90;;;;;;4846004;29;20498;-94
2021/09/21 02:56:02;;;;;;;0.00;0.00;;;10.90;99.90;;;;;;4845194;29;20050;-94
2021/09/21 02:58:28;;;;;;;0.00;0.00;;;10.90;99.90;;;;;;4845516;29;20521;-93
2021/09/21 03:00:57;;;;;;;0.10;0.10;;;11.00;99.90;;;;;;4844885;29;20086;-94
2021/09/21 03:03:29;;;;;;;0.00;0.00;;;10.90;99.90;;;;;;4845485;29;20046;-93
2021/09/21 03:06:30;;;;;;;0.00;0.00;;;10.90;99.90;;;;;;4845244;29;20046;-94
2021/09/21 03:09:00;;;;;;;0.00;0.00;;;11.00;99.90;;;;;;4859604;29;20150;-94
2021/09/21 03:11:29;;;;;;;0.00;0.00;;;11.00;99.90;;;;;;4845883;29;20038;-94
2021/09/21 03:17:08;;;;;;;0.00;0.00;;;10.90;99.90;;;;;;4845329;29;20209;-93
2021/09/21 03:19:28;;;;;;;0.10;0.10;;;10.90;99.90;;;;;;4860403;29;20517;-93
2021/09/21 03:21:55;;;;;;;0.00;0.00;;;10.90;99.90;;;;;;4829747;29;20049;-93
2021/09/21 03:24:22;;;;;;;0.10;0.10;;;10.90;99.90;;;;;;4845147;29;20042;-93
2021/09/21 03:26:48;;;;;;;0.10;0.10;;;10.90;99.90;;;;;;4830230;29;20045;-94
2021/09/21 03:29:15;;;;;;;0.10;0.10;;;10.90;99.90;;;;;;4845515;29;20073;-93
2021/09/21 03:31:42;;;;;;;0.10;0.10;;;10.90;99.90;;;;;;4844530;29;20058;-93
2021/09/21 03:34:09;;;;;;;0.00;0.00;;;11.00;99.90;;;;;;4845197;29;20430;-93
2021/09/21 03:36:36;;;;;;;0.00;0.00;;;10.90;99.90;;;;;;4845013;29;20068;-93
2021/09/21 03:39:03;;;;;;;0.10;0.10;;;10.90;99.90;;;;;;4844905;29;20125;-93
2021/09/21 03:41:30;;;;;;;0.00;0.00;;;11.00;99.90;;;;;;4845247;29;20102;-93
2021/09/21 03:43:57;;;;;;;0.00;0.00;;;11.00;99.90;;;;;;4844714;29;20046;-93
2021/09/21 03:46:24;;;;;;;0.22;0.10;;;11.00;99.90;;;;;;4844870;29;20056;-94
2021/09/21 03:48:54;;;;;;;0.15;0.15;;;11.00;99.90;;;;;;4829614;29;20046;-94
2021/09/21 03:51:21;;;;;;;0.20;0.10;;;11.00;99.90;;;;;;4844751;29;20057;-93
2021/09/21 03:53:47;;;;;;;0.00;0.00;;;11.00;99.90;;;;;;4844662;29;20054;-94
2021/09/21 03:56:15;;;;;;;0.30;0.30;;;11.00;99.90;;;;;;4845136;29;20129;-94
2021/09/21 03:58:41;;;;;;;0.10;0.10;;;11.00;99.90;;;;;;4829811;29;20406;-93
2021/09/21 04:01:08;;;;;;;0.25;0.25;;;11.00;99.90;;;;;;4830186;29;20126;-93
2021/09/21 04:03:35;;;;;;;0.10;0.10;;;11.00;99.90;;;;;;4845008;29;20057;-93
2021/09/21 04:06:02;;;;;;;0.00;0.00;;;11.00;99.90;;;;;;4844909;29;20038;-93
2021/09/21 04:08:29;;;;;;;0.00;0.00;;;11.00;99.90;;;;;;4844905;29;20038;-93
2021/09/21 04:10:55;;;;;;;0.00;0.00;;;11.00;99.90;;;;;;4829787;29;20046;-93
2021/09/21 04:13:22;;;;;;;0.00;0.00;;;11.00;99.90;;;;;;4845240;29;20053;-93
2021/09/21 04:15:49;;;;;;;0.10;0.10;;;11.00;99.90;;;;;;4844547;29;20121;-93
2021/09/21 04:18:16;;;;;;;0.00;0.00;;;11.00;99.90;;;;;;4844733;29;20141;-93
2021/09/21 04:20:43;;;;;;;0.10;0.10;;;11.00;99.90;;;;;;4829627;29;20045;-93
2021/09/21 04:23:09;;;;;;;0.10;0.10;;;11.00;99.90;;;;;;4844207;29;20521;-94
2021/09/21 04:25:36;;;;;;;0.00;0.00;;;11.00;99.90;;;;;;4844814;29;20083;-93
2021/09/21 04:28:08;;;;;;;0.00;0.00;;;11.00;99.90;;;;;;4844341;29;20049;-94
2021/09/21 04:30:40;;;;;;;0.00;0.00;;;11.00;99.90;;;;;;4830644;29;20518;-93
2021/09/21 04:33:07;;;;;;;0.00;0.00;;;11.00;99.90;;;;;;4843922;29;20053;-93
2021/09/21 04:35:41;;;;;;;0.00;0.00;;;11.10;99.90;;;;;;4829379;29;20054;-94
2021/09/21 04:38:09;;;;;;;0.00;0.00;;;10.90;99.90;;;;;;4844417;29;20065;-94
2021/09/21 04:40:38;;;;;;;0.00;0.00;;;11.00;99.90;;;;;;4842229;29;20471;-94
2021/09/21 04:43:05;;;;;;;0.00;0.00;;;11.00;99.90;;;;;;4869259;29;20057;-94
2021/09/21 04:45:36;;;;;;;0.00;0.00;;;11.00;99.90;;;;;;4845233;29;20191;-94
2021/09/21 04:48:04;;;;;;;0.05;0.05;;;11.00;99.90;;;;;;4848012;29;20073;-93
2021/09/21 04:50:31;;;;;;;0.10;0.10;;;11.00;99.90;;;;;;4878247;29;20068;-93
2021/09/21 04:53:07;;;;;;;0.45;0.25;;;11.00;99.90;;;;;;4847953;29;20155;-94
2021/09/21 04:55:34;;;;;;;0.00;0.00;;;11.00;99.90;;;;;;4878442;29;20048;-93
2021/09/21 04:58:04;;;;;;;0.10;0.10;;;10.90;99.90;;;;;;4878238;29;20050;-94
2021/09/21 05:00:31;;;;;;;0.00;0.00;;;10.90;99.90;;;;;;4832877;29;20132;-94
2021/09/21 05:02:58;;;;;;;0.10;0.10;;;10.90;99.90;;;;;;4846854;29;20070;-94
2021/09/21 05:05:25;;;;;;;0.00;0.00;;;10.90;99.90;;;;;;4847700;29;20509;-93
2021/09/21 05:07:52;;;;;;;0.00;0.00;;;11.00;99.90;;;;;;4832866;29;20487;-93
2021/09/21 05:10:18;;;;;;;0.00;0.00;;;11.00;99.90;;;;;;4877850;29;20136;-94
2021/09/21 05:12:45;;;;;;;0.00;0.00;;;11.00;99.90;;;;;;4877539;29;20129;-94
2021/09/21 05:15:12;;;;;;;0.03;0.03;;;11.00;99.90;;;;;;4846798;29;20057;-94
2021/09/21 05:17:39;;;;;;;0.10;0.10;;;11.00;99.90;;;;;;4877429;29;20042;-93
2021/09/21 05:20:07;;;;;;;0.00;0.00;;;11.00;99.90;;;;;;4846768;29;20052;-94
2021/09/21 05:22:34;;;;;;;0.00;0.00;;;11.00;99.90;;;;;;4877311;29;20046;-94
2021/09/21 05:25:01;;;;;;;0.00;0.00;;;11.00;99.90;;;;;;4831657;29;20178;-94
2021/09/21 05:27:27;;;;;;;0.10;0.10;;;11.00;99.90;;;;;;4876828;29;20049;-93
2021/09/21 05:29:54;;;;;;;0.00;0.00;;;11.00;99.90;;;;;;4831553;29;20132;-93
2021/09/21 05:32:21;;;;;;;0.00;0.00;;;11.00;99.90;;;;;;4843762;29;20058;-94
2021/09/21 05:34:51;;;;;;;0.00;0.00;;;11.00;99.90;;;;;;4874089;29;20203;-94
2021/09/21 05:37:18;;;;;;;0.20;0.20;;;11.00;99.90;;;;;;4843604;29;20050;-94
2021/09/21 05:39:47;;;;;;;0.00;0.00;;;11.10;99.90;;;;;;4843607;29;20094;-93
2021/09/21 05:42:19;;;;;;;0.20;0.20;;;10.90;99.90;;;;;;4844043;29;20057;-94
2021/09/21 05:44:46;;;;;;;0.00;0.00;;;11.10;99.90;;;;;;4843837;29;20047;-93
2021/09/21 05:47:13;;;;;;;0.00;0.00;;;11.10;99.90;;;;;;4843833;29;20419;-93
2021/09/21 05:49:45;;;;;;;0.13;0.03;;;11.10;99.90;;;;;;4843882;29;20042;-93
2021/09/21 05:52:12;;;;;;;0.05;0.05;;;11.10;99.90;;;;;;4843313;29;20103;-93
2021/09/21 05:54:39;;;;;;;0.15;0.10;;;11.10;99.90;;;;;;4843302;29;20042;-93
2021/09/21 05:57:08;;;;;;;0.00;0.00;;;11.20;99.90;;;;;;4842717;29;20404;-93
2021/09/21 05:59:44;;;;;;;0.00;0.00;;;11.20;99.90;;;;;;4843387;29;20404;-93
2021/09/21 06:02:10;;;;;;;0.00;0.00;;;11.20;99.90;;;;;;4842931;29;20133;-93
2021/09/21 06:04:37;;;;;;;0.00;0.00;;;11.20;99.90;;;;;;4834647;29;20143;-93
2021/09/21 06:07:12;;;;;;;0.10;0.10;;;11.20;99.90;;;;;;4810423;29;20034;-93
2021/09/21 06:09:39;;;;;;;0.10;0.10;;;11.20;99.90;;;;;;4810139;29;20100;-93
2021/09/21 06:12:06;;;;;;;0.00;0.00;;;11.20;99.90;;;;;;4825340;29;20043;-93
2021/09/21 06:14:33;;;;;;;0.10;0.10;;;11.20;99.90;;;;;;4795818;29;20043;-95
2021/09/21 06:16:59;;;;;;;0.10;0.10;;;11.20;99.90;;;;;;4826784;29;20050;-90
2021/09/21 06:19:26;;;;;;;0.00;0.00;;;11.20;99.90;;;;;;4825383;29;20046;-92
2021/09/21 06:21:53;;;;;;;0.00;0.00;;;11.20;99.90;;;;;;4824816;29;20051;-91
2021/09/21 06:24:23;;;;;;;0.00;0.00;;;11.20;99.90;;;;;;4824687;29;20053;-89
2021/09/21 06:26:51;;;;;;;0.00;0.00;;;11.20;99.90;;;;;;4797600;29;20046;-91
2021/09/21 06:29:17;;;;;;;0.10;0.10;;;11.30;99.90;;;;;;4839184;29;20122;-91
2021/09/21 06:31:44;;;;;;;0.00;0.00;;;11.30;99.90;;;;;;4827719;29;20132;-90
2021/09/21 06:34:11;;;;;;;0.10;0.10;;;11.30;99.90;;;;;;4809180;29;20054;-90
2021/09/21 06:36:38;;;;;;;0.00;0.00;;;11.30;99.90;;;;;;4803932;29;20103;-89
2021/09/21 06:39:13;;;;;;;0.10;0.08;;;11.30;99.90;;;;;;4820643;29;20052;-93
2021/09/21 06:41:40;;;;;;;;;;;11.60;99.90;;;;;;4819641;29;20038;-90
2021/09/21 06:44:07;;;;;;;0.20;0.10;;;11.30;99.90;;;;;;4845896;29;20027;-91
2021/09/21 06:46:33;;;;;;;0.00;0.00;;;11.30;99.90;;;;;;4835983;29;20403;-91
2021/09/21 06:49:00;;;;;;;0.00;0.00;;;11.30;99.90;;;;;;4827685;29;20042;-94
2021/09/21 06:51:27;;;;;;;0.00;0.00;;;11.40;99.90;;;;;;4813239;29;20046;-92
2021/09/21 06:53:54;;;;;;;0.00;0.00;;;11.40;99.90;;;;;;4827298;29;20054;-89
2021/09/21 06:56:28;;;;;;;0.00;0.00;;;11.40;99.90;;;;;;4827733;29;20049;-91
2021/09/21 06:58:56;;;;;;;0.00;0.00;;;11.40;99.90;;;;;;4830097;29;20041;-91
2021/09/21 07:01:25;;;;;;;0.10;0.10;;;11.50;99.90;;;;;;4833849;29;20061;-90
2021/09/21 07:03:52;;;;;;;0.00;0.00;;;11.50;99.90;;;;;;4813128;29;20515;-91
2021/09/21 07:06:18;;;;;;;0.03;0.03;;;11.50;99.90;;;;;;4812266;29;20130;-91
2021/09/21 07:08:45;;;;;;;0.00;0.00;;;11.60;99.90;;;;;;4828864;29;20078;-91
2021/09/21 07:11:13;;;;;;;0.10;0.10;;;11.70;99.90;;;;;;4812008;29;20053;-92
2021/09/21 07:13:40;;;;;;;0.00;0.00;;;11.50;99.90;;;;;;4827512;29;20053;-91
2021/09/21 07:16:08;;;;;;;0.05;0.05;;;11.80;99.90;;;;;;4832881;29;20046;-91
2021/09/21 07:18:35;;;;;;;0.05;0.05;;;11.90;99.90;;;;;;4844975;29;20046;-89
2021/09/21 07:21:02;;;;;;;0.25;0.25;;;12.00;99.90;;;;;;4845159;29;20399;-90
2021/09/21 07:23:29;;;;;;;0.00;0.00;;;12.00;99.90;;;;;;4845510;29;20057;-90
2021/09/21 07:25:56;;;;;;;0.15;0.15;;;12.10;99.90;;;;;;4845423;29;20042;-90
2021/09/21 07:28:22;;;;;;;0.65;0.10;;;12.10;99.90;;;;;;4845563;29;20038;-93
2021/09/21 07:30:49;;;;;;;0.00;0.00;;;12.20;99.90;;;;;;4845036;29;20127;-95
2021/09/21 07:33:17;;;;;;;0.00;0.00;;;12.30;99.90;;;;;;4847588;29;20158;-96
2021/09/21 07:35:47;;;;;;;0.10;0.10;;;12.20;99.90;;;;;;4845223;29;20140;-94
2021/09/21 07:38:14;;;;;;;0.00;0.00;;;12.40;99.90;;;;;;4845590;29;20041;-94
2021/09/21 07:40:44;;;;;;;0.00;0.00;;;12.70;99.90;;;;;;4816359;29;20103;-94
2021/09/21 07:43:11;;;;;;;0.03;0.03;;;12.70;99.90;;;;;;4845021;29;20050;-92
2021/09/21 07:45:38;;;;;;;0.00;0.00;;;12.80;99.90;;;;;;4845249;29;20072;-92
2021/09/21 07:48:05;;;;;;;0.10;0.10;;;12.80;99.90;;;;;;4842824;29;20038;-86
2021/09/21 07:50:42;;;;;;;0.00;0.00;;;12.90;99.90;;;;;;4864521;29;20101;-91
2021/09/21 07:53:09;;;;;;;0.00;0.00;;;12.90;99.90;;;;;;4847040;29;20049;-89
2021/09/21 07:55:36;;;;;;;0.10;0.10;;;13.00;99.90;;;;;;4844882;29;20517;-92
2021/09/21 07:58:02;;;;;;;0.00;0.00;;;13.00;99.90;;;;;;4845207;29;20042;-91
2021/09/21 08:00:30;;;;;;;0.00;0.00;;;13.10;99.90;;;;;;4829419;29;20049;-90
2021/09/21 08:02:57;;;;;;;0.00;0.00;;;13.20;99.90;;;;;;4845522;29;20042;-91
2021/09/21 08:05:24;;;;;;;0.00;0.00;;;13.30;99.90;;;;;;4844683;29;20081;-88
2021/09/21 08:07:50;;;;;;;0.00;0.00;;;13.40;99.90;;;;;;4829923;29;20038;-88
2021/09/21 08:10:17;;;;;;;0.00;0.00;;;13.40;99.90;;;;;;4827170;29;20514;-87
2021/09/21 08:12:45;;;;;;;0.10;0.10;;;13.50;99.90;;;;;;4801982;29;20049;-90
2021/09/21 08:15:12;;;;;;;0.00;0.00;;;13.60;99.90;;;;;;4826680;29;20050;-88
2021/09/21 08:17:40;;;;;;;0.00;0.00;;;13.60;99.90;;;;;;4834576;29;20042;-95
2021/09/21 08:20:07;;;;;;;0.08;0.08;;;13.80;99.90;;;;;;4831549;29;20509;-89
2021/09/21 08:22:36;;;;;;;0.00;0.00;;;13.70;99.90;;;;;;4848625;29;20049;-93
2021/09/21 08:25:08;;;;;;;0.00;0.00;;;14.00;99.90;;;;;;4845496;29;20448;-94
2021/09/21 08:27:37;;;;;;;0.00;0.00;;;13.80;99.90;;;;;;4839101;29;20395;-90
2021/09/21 08:30:06;;;;;;;0.00;0.00;;;13.90;99.90;;;;;;4848124;29;20136;-93
2021/09/21 08:32:33;;;;;;;0.00;0.00;;;13.80;99.90;;;;;;4847546;29;20415;-89
2021/09/21 08:38:12;;;;;;;0.10;0.10;;;14.00;99.90;;;;;;4835794;29;20057;-91
2021/09/21 08:40:39;;;;;;;0.00;0.00;;;14.10;99.90;;;;;;4847829;29;20042;-91
2021/09/21 08:43:05;;;;;;;0.10;0.10;;;14.10;99.90;;;;;;4847525;29;20053;-91
2021/09/21 08:45:32;;;;;;;0.10;0.10;;;14.10;99.90;;;;;;4843584;29;20041;-90
2021/09/21 08:48:02;;;;;;;0.00;0.00;;;14.20;99.90;;;;;;4844630;29;20077;-89
2021/09/21 08:50:29;;;;;;;0.13;0.13;;;14.30;99.90;;;;;;4829428;29;20047;-89
2021/09/21 08:52:56;;;;;;;0.10;0.10;;;14.40;99.90;;;;;;4829758;29;20389;-96
2021/09/21 08:55:23;;;;;;;0.00;0.00;;;14.40;99.90;;;;;;4829757;29;20049;-95
2021/09/21 08:57:51;;;;;;;0.00;0.00;;;14.50;99.90;;;;;;4829943;29;20038;-96
2021/09/21 09:00:27;;;;;;;0.00;0.00;;;14.60;99.90;;;;;;4829798;29;20042;-91
2021/09/21 09:03:11;;;;;;;0.03;0.03;;;14.60;99.90;;;;;;4831172;29;20050;-94
2021/09/21 09:05:49;;;;;;;0.10;0.10;;;14.70;99.90;;;;;;4830446;29;20069;-94
2021/09/21 09:08:32;;;;;;;0.10;0.10;;;14.80;99.90;;;;;;4829958;29;20521;-95
2021/09/21 09:11:21;;;;;;;0.00;0.00;;;14.80;99.90;;;;;;4829646;29;20052;-89
2021/09/21 09:13:55;;;;;;;0.00;0.00;;;14.90;99.90;;;;;;4830063;29;20050;-89
2021/09/21 09:16:24;;;;;;;0.00;0.00;;;15.00;99.90;;;;;;4847110;29;20054;-94
2021/09/21 10:51:49;;;;;;;0.25;0.20;;;16.80;99.90;;;;;;4783002;30;20096;-94
2021/09/21 10:54:15;;;;;;;0.43;0.28;;;16.80;99.90;;;;;;4757212;30;20430;-94
2021/09/21 10:56:43;;;;;;;0.43;0.20;;;17.00;99.90;;;;;;4770106;30;20131;-89
2021/09/21 10:59:19;;;;;;;0.38;0.20;;;17.00;99.90;;;;;;4781587;30;20442;-92
2021/09/21 11:01:49;;;;;;;0.15;0.15;;;17.10;99.90;;;;;;4765718;30;20055;-96
2021/09/21 11:04:16;;;;;;;0.57;0.30;;;17.00;99.90;;;;;;4771574;30;20076;-96
2021/09/21 11:06:46;;;;;;;0.10;0.10;;;17.10;99.90;;;;;;4772820;30;20087;-92
2021/09/21 11:09:23;;;;;;;0.10;0.10;;;17.20;99.90;;;;;;4784664;30;20044;-94
2021/09/21 11:11:50;;;;;;;0.30;0.30;;;17.20;99.90;;;;;;4769861;30;20048;-93
2021/09/21 11:14:20;;;;;;;0.10;0.10;;;17.40;99.90;;;;;;4770542;30;20052;-96
2021/09/21 12:15:54;;;;;;;1.13;0.60;;;17.60;99.90;;;;;;653044;24;20316;-87
2021/09/21 12:18:23;;;;;;;0.55;0.30;;;17.60;99.90;;;;;;4812571;30;20055;-94
2021/09/21 12:24:32;;;;;;;0.45;0.25;;;17.50;99.90;;;;;;4827331;30;20049;-90
2021/09/21 12:31:43;;;;;;;;;;;;;;;;;;;;;
2021/09/21 12:42:04;;;;;;;0.52;0.15;;;17.30;99.90;;;;;;4735246;30;20061;-95
2021/09/21 12:48:28;;;;;;;0.65;0.22;;;17.20;99.90;;;;;;4772229;30;20109;-94
2021/09/21 12:50:57;;;;;;;0.98;0.52;;;17.10;99.90;;;;;;4736114;30;20049;-96
2021/09/21 12:53:25;;;;;;;0.38;0.32;;;17.00;99.90;;;;;;4703966;30;20054;-96
2021/09/21 12:56:06;;;;;;;0.40;0.30;;;17.00;99.90;;;;;;4703194;30;20089;-96
2021/09/21 12:58:38;;;;;;;0.47;0.30;;;16.90;99.90;;;;;;4722130;30;20419;-89
2021/09/21 13:01:07;;;;;;;0.40;0.20;;;16.90;99.90;;;;;;4754729;30;20449;-90
2021/09/21 13:03:36;;;;;;;1.50;0.50;;;16.90;99.90;;;;;;4755515;30;20516;-95
2021/09/21 13:06:08;;;;;;;2.00;0.40;;;16.80;99.90;;;;;;4759327;30;20048;-96
2021/09/21 13:08:42;;;;;;;0.93;0.30;;;16.90;99.90;;;;;;4759121;30;20052;-96
2021/09/21 13:11:09;;;;;;;0.98;0.50;;;16.80;99.90;;;;;;4779655;30;20422;-93
2021/09/21 13:13:36;;;;;;;0.52;0.30;;;16.80;99.90;;;;;;4762680;30;20056;-96
2021/09/21 13:16:04;;;;;;;0.90;0.47;;;16.80;99.90;;;;;;4765930;30;20055;-90
2021/09/21 13:18:41;;;;;;;0.60;0.32;;;16.80;99.90;;;;;;4790038;30;20108;-96
2021/09/21 13:21:21;;;;;;;0.40;0.28;;;16.80;99.90;;;;;;4811177;30;20105;-92
2021/09/21 13:35:18;;;;;;;2.17;0.57;;;17.00;99.90;;;;;;4803544;30;20060;-86
2021/09/21 13:37:46;;;;;;;0.77;0.50;;;17.00;99.90;;;;;;4789171;30;20055;-86
2021/09/21 13:40:17;;;;;;;0.40;0.38;;;17.10;99.90;;;;;;4789196;30;20493;-86
2021/09/21 13:42:52;;;;;;;0.45;0.35;;;17.10;99.90;;;;;;4774754;30;20044;-86
2021/09/21 13:45:22;;;;;;;0.20;0.20;;;17.20;99.90;;;;;;4789454;30;20036;-85
2021/09/21 13:47:49;;;;;;;0.50;0.30;;;17.20;99.90;;;;;;4788075;30;20043;-85
2021/09/21 13:50:17;;;;;;;0.40;0.30;;;17.30;99.90;;;;;;4778587;30;20058;-85
2021/09/21 13:52:46;;;;;;;0.13;0.13;;;17.30;99.90;;;;;;4763261;30;20138;-88
2021/09/21 13:55:14;;;;;;;9.95;0.75;;;17.30;99.90;;;;;;4792322;30;20058;-87
2021/09/21 13:57:41;;;;;;;1.02;0.43;;;17.30;99.90;;;;;;4751564;30;20090;-86
2021/09/21 14:00:11;;;;;;;1.02;0.40;;;17.40;99.90;;;;;;4775004;30;20040;-87
2021/09/21 14:02:40;;;;;;;0.35;0.35;;;17.40;99.90;;;;;;4774917;30;20050;-86
2021/09/21 14:05:07;;;;;;;0.47;0.30;;;17.40;99.90;;;;;;4786879;30;20045;-86
2021/09/21 14:07:34;;;;;;;0.28;0.20;;;17.40;99.90;;;;;;4763074;30;20050;-87
2021/09/21 14:10:01;;;;;;;0.65;0.38;;;17.40;99.90;;;;;;4791590;30;20054;-86
2021/09/21 14:12:28;;;;;;;0.80;0.43;;;17.40;99.90;;;;;;4791619;30;20044;-84
2021/09/21 14:14:59;;;;;;;0.60;0.30;;;17.40;99.90;;;;;;4776480;30;20404;-85
2021/09/21 14:17:27;;;;;;;0.32;0.30;;;17.40;99.90;;;;;;4791934;30;20055;-85
2021/09/21 14:24:06;;;;;;;1.02;0.50;;;17.30;99.90;;;;;;4824131;30;20046;-95
2021/09/21 14:27:42;;;;;;;0.85;0.50;;;17.50;99.90;;;;;;4785400;30;20065;-95
2021/09/21 14:31:15;;;;;;;0.32;0.20;;;17.50;99.90;;;;;;4730395;30;20053;-94
2021/09/21 14:33:43;;;;;;;1.00;0.47;;;17.50;99.90;;;;;;4716010;30;20052;-92
2021/09/21 14:36:22;;;;;;;0.50;0.35;;;17.50;99.90;;;;;;4729165;30;20048;-92
2021/09/21 14:38:49;;;;;;;2.00;0.40;;;17.50;99.90;;;;;;4758063;30;20482;-92
2021/09/21 14:41:19;;;;;;;0.57;0.47;;;17.60;99.90;;;;;;4756651;30;20410;-93
2021/09/21 14:43:59;;;;;;;0.25;0.22;;;17.70;99.90;;;;;;4756167;30;20108;-93
2021/09/21 14:46:26;;;;;;;1.23;0.55;;;17.70;99.90;;;;;;4742342;30;20048;-92
